sensor_id;sensor_type;location;lat;lon;timestamp;P1;durP1;ratioP1;P2;durP2;ratioP2
74995;SDS011;63545;51.690;5.202;2023-02-17T00:01:57;17.40;;;11.27;;
74995;SDS011;63545;51.690;5.202;2023-02-17T00:04:23;17.47;;;11.90;;
74995;SDS011;63545;51.690;5.202;2023-02-17T00:06:48;17.67;;;11.53;;
74995;SDS011;63545;51.690;5.202;2023-02-17T00:09:14;18.20;;;11.47;;
74995;SDS011;63545;51.690;5.202;2023-02-17T00:11:39;18.10;;;11.13;;
74995;SDS011;63545;51.690;5.202;2023-02-17T00:14:05;19.60;;;12.33;;
74995;SDS011;63545;51.690;5.202;2023-02-17T00:16:30;17.97;;;11.27;;
74995;SDS011;63545;51.690;5.202;2023-02-17T00:18:57;16.58;;;11.10;;
74995;SDS011;63545;51.690;5.202;2023-02-17T00:21:25;16.03;;;10.60;;
74995;SDS011;63545;51.690;5.202;2023-02-17T00:23:52;15.23;;;9.95;;
74995;SDS011;63545;51.690;5.202;2023-02-17T00:26:18;16.80;;;10.95;;
74995;SDS011;63545;51.690;5.202;2023-02-17T00:28:44;18.00;;;10.90;;
74995;SDS011;63545;51.690;5.202;2023-02-17T00:31:20;16.55;;;9.77;;
74995;SDS011;63545;51.690;5.202;2023-02-17T00:33:46;18.85;;;10.77;;
74995;SDS011;63545;51.690;5.202;2023-02-17T00:36:13;16.93;;;11.07;;
74995;SDS011;63545;51.690;5.202;2023-02-17T00:38:41;17.15;;;10.80;;
74995;SDS011;63545;51.690;5.202;2023-02-17T00:41:07;21.00;;;11.43;;
74995;SDS011;63545;51.690;5.202;2023-02-17T00:43:32;15.43;;;10.60;;
74995;SDS011;63545;51.690;5.202;2023-02-17T00:45:57;16.73;;;11.00;;
74995;SDS011;63545;51.690;5.202;2023-02-17T00:48:23;16.17;;;10.17;;
74995;SDS011;63545;51.690;5.202;2023-02-17T00:50:48;16.43;;;10.17;;
74995;SDS011;63545;51.690;5.202;2023-02-17T00:53:14;16.27;;;10.33;;
74995;SDS011;63545;51.690;5.202;2023-02-17T00:55:39;17.15;;;10.73;;
74995;SDS011;63545;51.690;5.202;2023-02-17T00:58:04;18.10;;;10.83;;
74995;SDS011;63545;51.690;5.202;2023-02-17T01:00:30;16.20;;;10.30;;
74995;SDS011;63545;51.690;5.202;2023-02-17T01:02:55;15.90;;;9.97;;
74995;SDS011;63545;51.690;5.202;2023-02-17T01:05:20;16.63;;;10.70;;
74995;SDS011;63545;51.690;5.202;2023-02-17T01:07:46;16.63;;;10.23;;
74995;SDS011;63545;51.690;5.202;2023-02-17T01:10:11;13.70;;;8.77;;
74995;SDS011;63545;51.690;5.202;2023-02-17T01:12:37;18.40;;;11.00;;
74995;SDS011;63545;51.690;5.202;2023-02-17T01:15:02;21.07;;;10.67;;
74995;SDS011;63545;51.690;5.202;2023-02-17T01:17:28;16.83;;;10.47;;
74995;SDS011;63545;51.690;5.202;2023-02-17T01:19:53;16.83;;;11.50;;
74995;SDS011;63545;51.690;5.202;2023-02-17T01:22:18;19.07;;;11.33;;
74995;SDS011;63545;51.690;5.202;2023-02-17T01:24:44;18.10;;;11.63;;
74995;SDS011;63545;51.690;5.202;2023-02-17T01:27:09;20.53;;;11.53;;
74995;SDS011;63545;51.690;5.202;2023-02-17T01:29:34;22.20;;;12.17;;
74995;SDS011;63545;51.690;5.202;2023-02-17T01:32:00;22.53;;;11.57;;
74995;SDS011;63545;51.690;5.202;2023-02-17T01:34:25;25.33;;;12.67;;
74995;SDS011;63545;51.690;5.202;2023-02-17T01:36:50;23.27;;;12.73;;
74995;SDS011;63545;51.690;5.202;2023-02-17T01:39:16;21.07;;;12.20;;
74995;SDS011;63545;51.690;5.202;2023-02-17T01:41:42;23.42;;;12.45;;
74995;SDS011;63545;51.690;5.202;2023-02-17T01:46:36;22.50;;;12.13;;
74995;SDS011;63545;51.690;5.202;2023-02-17T01:49:03;17.95;;;11.27;;
74995;SDS011;63545;51.690;5.202;2023-02-17T01:51:41;22.75;;;12.18;;
74995;SDS011;63545;51.690;5.202;2023-02-17T01:54:16;19.43;;;11.27;;
74995;SDS011;63545;51.690;5.202;2023-02-17T01:56:51;19.73;;;11.30;;
74995;SDS011;63545;51.690;5.202;2023-02-17T01:59:20;17.85;;;10.77;;
74995;SDS011;63545;51.690;5.202;2023-02-17T02:01:46;18.25;;;11.40;;
74995;SDS011;63545;51.690;5.202;2023-02-17T02:04:14;15.57;;;8.95;;
74995;SDS011;63545;51.690;5.202;2023-02-17T02:06:41;19.63;;;11.37;;
74995;SDS011;63545;51.690;5.202;2023-02-17T02:09:10;19.25;;;11.35;;
74995;SDS011;63545;51.690;5.202;2023-02-17T02:11:39;16.98;;;11.43;;
74995;SDS011;63545;51.690;5.202;2023-02-17T02:14:05;18.63;;;11.67;;
74995;SDS011;63545;51.690;5.202;2023-02-17T02:16:38;16.50;;;10.57;;
74995;SDS011;63545;51.690;5.202;2023-02-17T02:38:15;16.70;;;11.13;;
74995;SDS011;63545;51.690;5.202;2023-02-17T02:40:46;19.50;;;11.93;;
74995;SDS011;63545;51.690;5.202;2023-02-17T02:43:15;17.92;;;10.25;;
74995;SDS011;63545;51.690;5.202;2023-02-17T02:45:41;15.98;;;10.13;;
74995;SDS011;63545;51.690;5.202;2023-02-17T02:48:06;17.73;;;9.83;;
74995;SDS011;63545;51.690;5.202;2023-02-17T02:53:35;18.55;;;11.25;;
74995;SDS011;63545;51.690;5.202;2023-02-17T03:05:14;21.23;;;12.93;;
74995;SDS011;63545;51.690;5.202;2023-02-17T03:07:59;22.85;;;13.38;;
74995;SDS011;63545;51.690;5.202;2023-02-17T03:10:27;22.90;;;14.20;;
74995;SDS011;63545;51.690;5.202;2023-02-17T03:12:53;24.80;;;15.07;;
74995;SDS011;63545;51.690;5.202;2023-02-17T03:15:27;22.43;;;14.83;;
74995;SDS011;63545;51.690;5.202;2023-02-17T03:17:56;26.38;;;15.55;;
74995;SDS011;63545;51.690;5.202;2023-02-17T03:20:22;27.05;;;16.77;;
74995;SDS011;63545;51.690;5.202;2023-02-17T03:22:48;27.40;;;16.30;;
74995;SDS011;63545;51.690;5.202;2023-02-17T03:25:13;26.92;;;16.60;;
74995;SDS011;63545;51.690;5.202;2023-02-17T03:27:39;26.23;;;15.43;;
74995;SDS011;63545;51.690;5.202;2023-02-17T03:30:04;28.07;;;14.00;;
74995;SDS011;63545;51.690;5.202;2023-02-17T03:32:30;27.17;;;17.10;;
74995;SDS011;63545;51.690;5.202;2023-02-17T03:34:56;29.03;;;17.37;;
74995;SDS011;63545;51.690;5.202;2023-02-17T03:37:21;28.17;;;16.67;;
74995;SDS011;63545;51.690;5.202;2023-02-17T03:39:47;27.80;;;15.75;;
74995;SDS011;63545;51.690;5.202;2023-02-17T03:42:12;26.30;;;15.47;;
74995;SDS011;63545;51.690;5.202;2023-02-17T03:44:37;29.80;;;16.70;;
74995;SDS011;63545;51.690;5.202;2023-02-17T03:47:03;20.43;;;12.87;;
74995;SDS011;63545;51.690;5.202;2023-02-17T03:49:28;24.93;;;14.93;;
74995;SDS011;63545;51.690;5.202;2023-02-17T03:51:53;25.77;;;15.13;;
74995;SDS011;63545;51.690;5.202;2023-02-17T03:54:19;28.52;;;15.40;;
74995;SDS011;63545;51.690;5.202;2023-02-17T03:56:44;24.17;;;14.20;;
74995;SDS011;63545;51.690;5.202;2023-02-17T03:59:10;24.90;;;14.20;;
74995;SDS011;63545;51.690;5.202;2023-02-17T04:01:35;27.33;;;14.70;;
74995;SDS011;63545;51.690;5.202;2023-02-17T04:04:00;26.80;;;14.63;;
74995;SDS011;63545;51.690;5.202;2023-02-17T04:06:26;27.77;;;15.00;;
74995;SDS011;63545;51.690;5.202;2023-02-17T04:08:51;25.15;;;14.32;;
74995;SDS011;63545;51.690;5.202;2023-02-17T04:11:17;21.87;;;13.27;;
74995;SDS011;63545;51.690;5.202;2023-02-17T04:13:42;25.07;;;14.53;;
74995;SDS011;63545;51.690;5.202;2023-02-17T04:16:08;23.67;;;12.97;;
74995;SDS011;63545;51.690;5.202;2023-02-17T04:18:34;23.63;;;14.07;;
74995;SDS011;63545;51.690;5.202;2023-02-17T04:20:59;23.17;;;13.90;;
74995;SDS011;63545;51.690;5.202;2023-02-17T04:23:25;24.73;;;13.88;;
74995;SDS011;63545;51.690;5.202;2023-02-17T04:25:51;21.77;;;12.73;;
74995;SDS011;63545;51.690;5.202;2023-02-17T04:28:16;22.03;;;14.03;;
74995;SDS011;63545;51.690;5.202;2023-02-17T04:30:42;24.60;;;13.23;;
74995;SDS011;63545;51.690;5.202;2023-02-17T04:33:08;22.70;;;13.00;;
74995;SDS011;63545;51.690;5.202;2023-02-17T04:35:34;22.63;;;13.17;;
74995;SDS011;63545;51.690;5.202;2023-02-17T04:37:59;21.67;;;13.00;;
74995;SDS011;63545;51.690;5.202;2023-02-17T04:40:24;23.23;;;13.70;;
74995;SDS011;63545;51.690;5.202;2023-02-17T04:42:50;21.37;;;12.93;;
74995;SDS011;63545;51.690;5.202;2023-02-17T04:45:15;21.50;;;12.93;;
74995;SDS011;63545;51.690;5.202;2023-02-17T04:47:40;21.07;;;12.63;;
74995;SDS011;63545;51.690;5.202;2023-02-17T04:50:06;21.60;;;13.63;;
74995;SDS011;63545;51.690;5.202;2023-02-17T04:52:33;22.83;;;12.68;;
74995;SDS011;63545;51.690;5.202;2023-02-17T04:54:58;22.60;;;12.48;;
74995;SDS011;63545;51.690;5.202;2023-02-17T04:57:24;20.63;;;13.13;;
74995;SDS011;63545;51.690;5.202;2023-02-17T04:59:49;21.77;;;13.13;;
74995;SDS011;63545;51.690;5.202;2023-02-17T05:02:14;21.87;;;13.03;;
74995;SDS011;63545;51.690;5.202;2023-02-17T05:04:40;22.47;;;12.47;;
74995;SDS011;63545;51.690;5.202;2023-02-17T05:07:05;22.93;;;13.60;;
74995;SDS011;63545;51.690;5.202;2023-02-17T05:09:30;25.93;;;13.77;;
74995;SDS011;63545;51.690;5.202;2023-02-17T05:11:56;23.67;;;12.53;;
74995;SDS011;63545;51.690;5.202;2023-02-17T05:14:21;23.15;;;13.20;;
74995;SDS011;63545;51.690;5.202;2023-02-17T05:16:46;21.07;;;13.07;;
74995;SDS011;63545;51.690;5.202;2023-02-17T05:19:12;22.20;;;13.13;;
74995;SDS011;63545;51.690;5.202;2023-02-17T05:21:37;22.90;;;12.77;;
74995;SDS011;63545;51.690;5.202;2023-02-17T05:24:03;22.23;;;12.70;;
74995;SDS011;63545;51.690;5.202;2023-02-17T05:26:28;21.75;;;12.32;;
74995;SDS011;63545;51.690;5.202;2023-02-17T05:28:54;20.83;;;13.87;;
74995;SDS011;63545;51.690;5.202;2023-02-17T05:31:19;19.13;;;12.98;;
74995;SDS011;63545;51.690;5.202;2023-02-17T05:33:45;21.50;;;13.90;;
74995;SDS011;63545;51.690;5.202;2023-02-17T05:36:10;23.37;;;12.63;;
74995;SDS011;63545;51.690;5.202;2023-02-17T05:38:36;21.43;;;13.03;;
74995;SDS011;63545;51.690;5.202;2023-02-17T05:41:02;22.83;;;13.45;;
74995;SDS011;63545;51.690;5.202;2023-02-17T05:43:28;23.42;;;12.50;;
74995;SDS011;63545;51.690;5.202;2023-02-17T05:45:53;25.53;;;12.93;;
74995;SDS011;63545;51.690;5.202;2023-02-17T05:48:18;23.73;;;13.63;;
74995;SDS011;63545;51.690;5.202;2023-02-17T05:50:44;23.20;;;13.40;;
74995;SDS011;63545;51.690;5.202;2023-02-17T05:53:09;22.27;;;13.87;;
74995;SDS011;63545;51.690;5.202;2023-02-17T05:55:35;20.92;;;12.23;;
74995;SDS011;63545;51.690;5.202;2023-02-17T05:58:00;23.53;;;13.40;;
74995;SDS011;63545;51.690;5.202;2023-02-17T06:00:26;21.90;;;13.23;;
74995;SDS011;63545;51.690;5.202;2023-02-17T06:02:51;23.20;;;13.83;;
74995;SDS011;63545;51.690;5.202;2023-02-17T06:05:17;25.23;;;13.60;;
74995;SDS011;63545;51.690;5.202;2023-02-17T06:07:42;22.55;;;13.07;;
74995;SDS011;63545;51.690;5.202;2023-02-17T06:10:08;27.83;;;14.70;;
74995;SDS011;63545;51.690;5.202;2023-02-17T06:12:34;24.80;;;14.15;;
74995;SDS011;63545;51.690;5.202;2023-02-17T06:15:00;26.70;;;14.30;;
74995;SDS011;63545;51.690;5.202;2023-02-17T06:17:25;25.27;;;13.87;;
74995;SDS011;63545;51.690;5.202;2023-02-17T06:19:51;23.80;;;13.95;;
74995;SDS011;63545;51.690;5.202;2023-02-17T06:22:16;25.17;;;13.97;;
74995;SDS011;63545;51.690;5.202;2023-02-17T06:24:41;26.23;;;14.57;;
74995;SDS011;63545;51.690;5.202;2023-02-17T06:27:07;26.23;;;14.60;;
74995;SDS011;63545;51.690;5.202;2023-02-17T06:29:32;23.00;;;13.47;;
74995;SDS011;63545;51.690;5.202;2023-02-17T06:31:57;25.97;;;14.03;;
74995;SDS011;63545;51.690;5.202;2023-02-17T06:34:23;25.03;;;14.57;;
74995;SDS011;63545;51.690;5.202;2023-02-17T06:36:48;25.23;;;13.38;;
74995;SDS011;63545;51.690;5.202;2023-02-17T06:39:13;24.50;;;13.10;;
74995;SDS011;63545;51.690;5.202;2023-02-17T06:41:39;26.97;;;14.47;;
74995;SDS011;63545;51.690;5.202;2023-02-17T06:44:04;25.30;;;13.80;;
74995;SDS011;63545;51.690;5.202;2023-02-17T06:46:30;23.73;;;14.43;;
74995;SDS011;63545;51.690;5.202;2023-02-17T06:48:55;26.07;;;14.77;;
74995;SDS011;63545;51.690;5.202;2023-02-17T06:51:20;21.42;;;12.95;;
74995;SDS011;63545;51.690;5.202;2023-02-17T06:53:46;23.83;;;13.57;;
74995;SDS011;63545;51.690;5.202;2023-02-17T06:56:11;24.07;;;13.27;;
74995;SDS011;63545;51.690;5.202;2023-02-17T06:58:36;23.87;;;13.40;;
74995;SDS011;63545;51.690;5.202;2023-02-17T07:01:02;23.43;;;13.70;;
74995;SDS011;63545;51.690;5.202;2023-02-17T07:03:28;21.63;;;13.80;;
74995;SDS011;63545;51.690;5.202;2023-02-17T07:05:57;21.20;;;13.20;;
74995;SDS011;63545;51.690;5.202;2023-02-17T07:08:22;22.08;;;13.43;;
74995;SDS011;63545;51.690;5.202;2023-02-17T07:10:48;22.88;;;13.27;;
74995;SDS011;63545;51.690;5.202;2023-02-17T07:13:13;21.70;;;13.23;;
74995;SDS011;63545;51.690;5.202;2023-02-17T07:15:39;22.40;;;12.83;;
74995;SDS011;63545;51.690;5.202;2023-02-17T07:18:04;21.13;;;12.50;;
74995;SDS011;63545;51.690;5.202;2023-02-17T07:20:29;23.00;;;13.30;;
74995;SDS011;63545;51.690;5.202;2023-02-17T07:22:56;24.27;;;12.30;;
74995;SDS011;63545;51.690;5.202;2023-02-17T07:25:22;21.15;;;12.65;;
74995;SDS011;63545;51.690;5.202;2023-02-17T07:27:47;19.47;;;11.63;;
74995;SDS011;63545;51.690;5.202;2023-02-17T07:30:12;18.63;;;11.10;;
74995;SDS011;63545;51.690;5.202;2023-02-17T07:32:38;20.10;;;11.23;;
74995;SDS011;63545;51.690;5.202;2023-02-17T07:35:03;20.17;;;12.23;;
74995;SDS011;63545;51.690;5.202;2023-02-17T07:37:29;23.75;;;11.27;;
74995;SDS011;63545;51.690;5.202;2023-02-17T07:39:54;19.80;;;11.97;;
74995;SDS011;63545;51.690;5.202;2023-02-17T07:42:21;21.55;;;12.75;;
74995;SDS011;63545;51.690;5.202;2023-02-17T07:44:46;18.80;;;12.33;;
74995;SDS011;63545;51.690;5.202;2023-02-17T07:47:12;22.53;;;12.00;;
74995;SDS011;63545;51.690;5.202;2023-02-17T07:49:37;21.57;;;13.13;;
74995;SDS011;63545;51.690;5.202;2023-02-17T07:52:02;21.10;;;12.40;;
74995;SDS011;63545;51.690;5.202;2023-02-17T07:54:28;20.13;;;11.52;;
74995;SDS011;63545;51.690;5.202;2023-02-17T07:56:53;20.83;;;12.50;;
74995;SDS011;63545;51.690;5.202;2023-02-17T07:59:19;17.37;;;11.93;;
74995;SDS011;63545;51.690;5.202;2023-02-17T08:01:44;18.23;;;11.23;;
74995;SDS011;63545;51.690;5.202;2023-02-17T08:04:09;19.73;;;11.97;;
74995;SDS011;63545;51.690;5.202;2023-02-17T08:06:35;21.50;;;12.13;;
74995;SDS011;63545;51.690;5.202;2023-02-17T08:09:01;22.35;;;11.85;;
74995;SDS011;63545;51.690;5.202;2023-02-17T08:11:45;18.67;;;12.50;;
74995;SDS011;63545;51.690;5.202;2023-02-17T08:14:30;20.42;;;12.90;;
74995;SDS011;63545;51.690;5.202;2023-02-17T08:16:57;19.02;;;12.25;;
74995;SDS011;63545;51.690;5.202;2023-02-17T08:19:23;22.77;;;12.93;;
74995;SDS011;63545;51.690;5.202;2023-02-17T08:21:51;19.83;;;12.63;;
74995;SDS011;63545;51.690;5.202;2023-02-17T08:24:18;22.45;;;12.75;;
74995;SDS011;63545;51.690;5.202;2023-02-17T08:26:43;19.93;;;12.50;;
74995;SDS011;63545;51.690;5.202;2023-02-17T08:29:09;17.75;;;12.50;;
74995;SDS011;63545;51.690;5.202;2023-02-17T08:31:36;18.00;;;11.80;;
74995;SDS011;63545;51.690;5.202;2023-02-17T08:34:03;16.70;;;11.17;;
74995;SDS011;63545;51.690;5.202;2023-02-17T08:36:30;14.93;;;10.18;;
74995;SDS011;63545;51.690;5.202;2023-02-17T08:38:56;14.50;;;9.90;;
74995;SDS011;63545;51.690;5.202;2023-02-17T08:43:49;15.25;;;10.82;;
74995;SDS011;63545;51.690;5.202;2023-02-17T08:46:15;15.98;;;10.50;;
74995;SDS011;63545;51.690;5.202;2023-02-17T08:48:41;13.90;;;10.30;;
74995;SDS011;63545;51.690;5.202;2023-02-17T08:51:07;14.52;;;10.05;;
74995;SDS011;63545;51.690;5.202;2023-02-17T08:53:33;13.63;;;9.40;;
74995;SDS011;63545;51.690;5.202;2023-02-17T08:55:58;13.20;;;9.25;;
74995;SDS011;63545;51.690;5.202;2023-02-17T08:58:24;11.43;;;8.47;;
74995;SDS011;63545;51.690;5.202;2023-02-17T09:00:49;14.03;;;8.90;;
74995;SDS011;63545;51.690;5.202;2023-02-17T09:03:14;12.13;;;8.80;;
74995;SDS011;63545;51.690;5.202;2023-02-17T09:05:40;11.82;;;8.13;;
74995;SDS011;63545;51.690;5.202;2023-02-17T09:08:05;12.10;;;7.83;;
74995;SDS011;63545;51.690;5.202;2023-02-17T09:10:31;13.87;;;8.33;;
74995;SDS011;63545;51.690;5.202;2023-02-17T09:12:56;10.63;;;8.23;;
74995;SDS011;63545;51.690;5.202;2023-02-17T09:15:22;14.13;;;8.77;;
74995;SDS011;63545;51.690;5.202;2023-02-17T09:17:47;10.70;;;8.20;;
74995;SDS011;63545;51.690;5.202;2023-02-17T09:20:12;10.50;;;7.60;;
74995;SDS011;63545;51.690;5.202;2023-02-17T09:22:38;12.30;;;8.03;;
74995;SDS011;63545;51.690;5.202;2023-02-17T09:25:03;11.70;;;7.97;;
74995;SDS011;63545;51.690;5.202;2023-02-17T09:27:29;9.50;;;6.85;;
74995;SDS011;63545;51.690;5.202;2023-02-17T09:29:55;7.03;;;5.15;;
74995;SDS011;63545;51.690;5.202;2023-02-17T09:32:21;8.67;;;6.90;;
74995;SDS011;63545;51.690;5.202;2023-02-17T09:34:46;8.50;;;6.50;;
74995;SDS011;63545;51.690;5.202;2023-02-17T09:37:18;8.48;;;6.35;;
74995;SDS011;63545;51.690;5.202;2023-02-17T09:39:44;6.47;;;5.70;;
74995;SDS011;63545;51.690;5.202;2023-02-17T09:42:20;7.10;;;5.70;;
74995;SDS011;63545;51.690;5.202;2023-02-17T09:44:48;7.93;;;6.40;;
74995;SDS011;63545;51.690;5.202;2023-02-17T09:49:54;7.22;;;5.55;;
74995;SDS011;63545;51.690;5.202;2023-02-17T09:52:34;9.25;;;6.10;;
74995;SDS011;63545;51.690;5.202;2023-02-17T09:57:59;11.15;;;6.13;;
74995;SDS011;63545;51.690;5.202;2023-02-17T10:00:28;8.20;;;6.00;;
74995;SDS011;63545;51.690;5.202;2023-02-17T10:02:58;8.45;;;5.20;;
74995;SDS011;63545;51.690;5.202;2023-02-17T10:05:27;7.57;;;5.55;;
74995;SDS011;63545;51.690;5.202;2023-02-17T10:07:56;7.18;;;5.90;;
74995;SDS011;63545;51.690;5.202;2023-02-17T10:10:43;8.07;;;5.50;;
74995;SDS011;63545;51.690;5.202;2023-02-17T10:13:14;6.27;;;4.73;;
74995;SDS011;63545;51.690;5.202;2023-02-17T10:15:44;6.95;;;4.80;;
74995;SDS011;63545;51.690;5.202;2023-02-17T10:21:10;7.43;;;5.20;;
74995;SDS011;63545;51.690;5.202;2023-02-17T10:23:36;7.50;;;5.63;;
74995;SDS011;63545;51.690;5.202;2023-02-17T10:28:48;8.07;;;4.57;;
74995;SDS011;63545;51.690;5.202;2023-02-17T10:36:56;6.18;;;4.45;;
74995;SDS011;63545;51.690;5.202;2023-02-17T10:44:57;6.33;;;4.20;;
74995;SDS011;63545;51.690;5.202;2023-02-17T10:47:25;4.90;;;4.22;;
74995;SDS011;63545;51.690;5.202;2023-02-17T10:49:51;8.67;;;4.10;;
74995;SDS011;63545;51.690;5.202;2023-02-17T10:52:18;7.10;;;4.50;;
74995;SDS011;63545;51.690;5.202;2023-02-17T10:54:51;5.32;;;3.83;;
74995;SDS011;63545;51.690;5.202;2023-02-17T10:57:20;5.30;;;4.00;;
74995;SDS011;63545;51.690;5.202;2023-02-17T10:59:46;7.40;;;4.35;;
74995;SDS011;63545;51.690;5.202;2023-02-17T11:04:41;5.83;;;4.17;;
74995;SDS011;63545;51.690;5.202;2023-02-17T11:07:09;7.35;;;4.00;;
74995;SDS011;63545;51.690;5.202;2023-02-17T11:09:38;6.32;;;4.45;;
74995;SDS011;63545;51.690;5.202;2023-02-17T11:12:12;6.80;;;3.80;;
74995;SDS011;63545;51.690;5.202;2023-02-17T11:14:43;5.78;;;4.10;;
74995;SDS011;63545;51.690;5.202;2023-02-17T11:17:15;8.10;;;4.10;;
74995;SDS011;63545;51.690;5.202;2023-02-17T11:19:52;5.55;;;4.22;;
74995;SDS011;63545;51.690;5.202;2023-02-17T11:22:38;6.20;;;4.22;;
74995;SDS011;63545;51.690;5.202;2023-02-17T11:27:51;8.20;;;4.50;;
74995;SDS011;63545;51.690;5.202;2023-02-17T11:30:18;5.67;;;3.87;;
74995;SDS011;63545;51.690;5.202;2023-02-17T11:32:45;8.77;;;4.05;;
74995;SDS011;63545;51.690;5.202;2023-02-17T11:35:47;7.57;;;4.27;;
74995;SDS011;63545;51.690;5.202;2023-02-17T11:40:35;5.63;;;4.10;;
74995;SDS011;63545;51.690;5.202;2023-02-17T11:43:02;5.50;;;3.60;;
74995;SDS011;63545;51.690;5.202;2023-02-17T11:45:39;9.05;;;4.28;;
74995;SDS011;63545;51.690;5.202;2023-02-17T11:51:12;8.60;;;4.10;;
74995;SDS011;63545;51.690;5.202;2023-02-17T11:54:00;8.60;;;4.33;;
74995;SDS011;63545;51.690;5.202;2023-02-17T11:56:34;5.78;;;4.13;;
74995;SDS011;63545;51.690;5.202;2023-02-17T12:02:07;5.57;;;3.85;;
74995;SDS011;63545;51.690;5.202;2023-02-17T12:04:46;6.07;;;3.65;;
74995;SDS011;63545;51.690;5.202;2023-02-17T12:07:37;7.43;;;4.57;;
74995;SDS011;63545;51.690;5.202;2023-02-17T12:10:10;6.55;;;4.10;;
74995;SDS011;63545;51.690;5.202;2023-02-17T12:15:22;15.43;;;4.80;;
74995;SDS011;63545;51.690;5.202;2023-02-17T12:26:36;7.95;;;3.92;;
74995;SDS011;63545;51.690;5.202;2023-02-17T12:29:09;6.88;;;4.25;;
74995;SDS011;63545;51.690;5.202;2023-02-17T12:31:59;5.78;;;4.15;;
74995;SDS011;63545;51.690;5.202;2023-02-17T12:34:30;6.10;;;3.70;;
74995;SDS011;63545;51.690;5.202;2023-02-17T12:37:00;6.80;;;3.17;;
74995;SDS011;63545;51.690;5.202;2023-02-17T12:42:09;6.05;;;3.17;;
74995;SDS011;63545;51.690;5.202;2023-02-17T12:44:40;6.90;;;3.30;;
74995;SDS011;63545;51.690;5.202;2023-02-17T12:47:11;5.10;;;3.33;;
74995;SDS011;63545;51.690;5.202;2023-02-17T12:49:48;4.70;;;2.95;;
74995;SDS011;63545;51.690;5.202;2023-02-17T12:52:18;5.30;;;3.10;;
74995;SDS011;63545;51.690;5.202;2023-02-17T13:00:22;6.20;;;3.22;;
74995;SDS011;63545;51.690;5.202;2023-02-17T13:02:55;8.50;;;2.90;;
74995;SDS011;63545;51.690;5.202;2023-02-17T13:05:34;5.32;;;3.13;;
74995;SDS011;63545;51.690;5.202;2023-02-17T13:08:03;9.85;;;3.15;;
74995;SDS011;63545;51.690;5.202;2023-02-17T13:13:00;6.85;;;3.13;;
74995;SDS011;63545;51.690;5.202;2023-02-17T13:15:41;7.50;;;2.90;;
74995;SDS011;63545;51.690;5.202;2023-02-17T13:18:27;6.57;;;3.17;;
74995;SDS011;63545;51.690;5.202;2023-02-17T13:21:00;6.85;;;3.55;;
74995;SDS011;63545;51.690;5.202;2023-02-17T13:23:42;4.55;;;2.92;;
74995;SDS011;63545;51.690;5.202;2023-02-17T13:26:23;8.50;;;3.40;;
74995;SDS011;63545;51.690;5.202;2023-02-17T13:28:51;8.17;;;3.80;;
74995;SDS011;63545;51.690;5.202;2023-02-17T13:31:19;5.15;;;2.80;;
74995;SDS011;63545;51.690;5.202;2023-02-17T13:33:56;6.38;;;3.40;;
74995;SDS011;63545;51.690;5.202;2023-02-17T13:41:25;5.67;;;3.10;;
74995;SDS011;63545;51.690;5.202;2023-02-17T13:43:52;6.65;;;3.25;;
74995;SDS011;63545;51.690;5.202;2023-02-17T13:46:22;7.27;;;2.90;;
74995;SDS011;63545;51.690;5.202;2023-02-17T13:48:59;6.35;;;2.70;;
74995;SDS011;63545;51.690;5.202;2023-02-17T13:51:28;10.15;;;3.30;;
74995;SDS011;63545;51.690;5.202;2023-02-17T13:53:54;8.25;;;3.42;;
74995;SDS011;63545;51.690;5.202;2023-02-17T13:56:26;9.60;;;3.10;;
74995;SDS011;63545;51.690;5.202;2023-02-17T13:58:53;6.28;;;3.78;;
74995;SDS011;63545;51.690;5.202;2023-02-17T14:01:25;8.25;;;3.20;;
74995;SDS011;63545;51.690;5.202;2023-02-17T14:03:53;6.83;;;3.60;;
74995;SDS011;63545;51.690;5.202;2023-02-17T14:06:29;6.57;;;3.38;;
74995;SDS011;63545;51.690;5.202;2023-02-17T14:08:59;11.23;;;4.38;;
74995;SDS011;63545;51.690;5.202;2023-02-17T14:11:36;7.03;;;3.33;;
74995;SDS011;63545;51.690;5.202;2023-02-17T14:14:01;10.30;;;3.97;;
74995;SDS011;63545;51.690;5.202;2023-02-17T14:16:34;10.30;;;3.80;;
74995;SDS011;63545;51.690;5.202;2023-02-17T14:19:05;8.02;;;3.45;;
74995;SDS011;63545;51.690;5.202;2023-02-17T14:21:31;11.27;;;3.63;;
74995;SDS011;63545;51.690;5.202;2023-02-17T14:23:57;10.75;;;3.80;;
74995;SDS011;63545;51.690;5.202;2023-02-17T14:26:41;6.67;;;3.27;;
74995;SDS011;63545;51.690;5.202;2023-02-17T14:29:09;6.35;;;3.47;;
74995;SDS011;63545;51.690;5.202;2023-02-17T14:31:40;6.93;;;3.30;;
74995;SDS011;63545;51.690;5.202;2023-02-17T14:34:06;9.45;;;3.63;;
74995;SDS011;63545;51.690;5.202;2023-02-17T14:36:38;6.75;;;3.50;;
74995;SDS011;63545;51.690;5.202;2023-02-17T14:39:05;7.27;;;3.13;;
74995;SDS011;63545;51.690;5.202;2023-02-17T14:41:32;8.93;;;3.45;;
74995;SDS011;63545;51.690;5.202;2023-02-17T14:43:57;7.37;;;4.03;;
74995;SDS011;63545;51.690;5.202;2023-02-17T14:46:23;6.00;;;3.60;;
74995;SDS011;63545;51.690;5.202;2023-02-17T14:48:49;6.60;;;3.40;;
74995;SDS011;63545;51.690;5.202;2023-02-17T14:51:16;5.87;;;3.93;;
74995;SDS011;63545;51.690;5.202;2023-02-17T14:53:43;9.98;;;7.68;;
74995;SDS011;63545;51.690;5.202;2023-02-17T14:56:20;6.70;;;3.50;;
74995;SDS011;63545;51.690;5.202;2023-02-17T14:58:47;11.47;;;3.73;;
74995;SDS011;63545;51.690;5.202;2023-02-17T15:01:14;8.43;;;3.50;;
74995;SDS011;63545;51.690;5.202;2023-02-17T15:03:41;5.65;;;3.45;;
74995;SDS011;63545;51.690;5.202;2023-02-17T15:06:13;7.50;;;3.80;;
74995;SDS011;63545;51.690;5.202;2023-02-17T15:09:03;11.23;;;4.50;;
74995;SDS011;63545;51.690;5.202;2023-02-17T15:11:30;8.43;;;4.27;;
74995;SDS011;63545;51.690;5.202;2023-02-17T15:13:58;7.68;;;4.00;;
74995;SDS011;63545;51.690;5.202;2023-02-17T15:16:25;6.50;;;4.20;;
74995;SDS011;63545;51.690;5.202;2023-02-17T15:18:50;8.77;;;4.57;;
74995;SDS011;63545;51.690;5.202;2023-02-17T15:21:20;6.87;;;3.60;;
74995;SDS011;63545;51.690;5.202;2023-02-17T15:23:46;6.47;;;4.03;;
74995;SDS011;63545;51.690;5.202;2023-02-17T15:26:11;6.60;;;3.93;;
74995;SDS011;63545;51.690;5.202;2023-02-17T15:28:36;6.57;;;3.27;;
74995;SDS011;63545;51.690;5.202;2023-02-17T15:31:02;7.35;;;4.20;;
74995;SDS011;63545;51.690;5.202;2023-02-17T15:33:28;7.03;;;3.77;;
74995;SDS011;63545;51.690;5.202;2023-02-17T15:35:53;7.20;;;4.37;;
74995;SDS011;63545;51.690;5.202;2023-02-17T15:38:19;6.53;;;4.13;;
74995;SDS011;63545;51.690;5.202;2023-02-17T15:40:44;6.00;;;4.33;;
74995;SDS011;63545;51.690;5.202;2023-02-17T15:43:11;7.93;;;4.20;;
74995;SDS011;63545;51.690;5.202;2023-02-17T15:45:38;8.73;;;4.73;;
74995;SDS011;63545;51.690;5.202;2023-02-17T15:48:11;9.13;;;4.97;;
74995;SDS011;63545;51.690;5.202;2023-02-17T15:50:43;9.47;;;4.30;;
74995;SDS011;63545;51.690;5.202;2023-02-17T15:53:08;7.07;;;4.20;;
74995;SDS011;63545;51.690;5.202;2023-02-17T15:55:34;7.90;;;4.90;;
74995;SDS011;63545;51.690;5.202;2023-02-17T15:58:01;8.70;;;5.10;;
74995;SDS011;63545;51.690;5.202;2023-02-17T16:00:29;11.23;;;6.20;;
74995;SDS011;63545;51.690;5.202;2023-02-17T16:02:56;13.23;;;5.65;;
74995;SDS011;63545;51.690;5.202;2023-02-17T16:05:23;13.90;;;5.87;;
74995;SDS011;63545;51.690;5.202;2023-02-17T16:07:49;11.95;;;6.60;;
74995;SDS011;63545;51.690;5.202;2023-02-17T16:10:16;10.50;;;4.80;;
74995;SDS011;63545;51.690;5.202;2023-02-17T16:12:44;7.97;;;5.15;;
74995;SDS011;63545;51.690;5.202;2023-02-17T16:15:11;13.52;;;6.95;;